Time;durP1;ratioP1;P1;durP2;ratioP2;P2;SDS_P1;SDS_P2;PMS_P1;PMS_P2;Temp;Humidity;BMP_temperature;BMP_pressure;BME280_temperature;BME280_humidity;BME280_pressure;Samples;Min_cycle;Max_cycle;Signal;HPM_P1;HPM_P2
2022/04/03 00:01:24;;;;;;;3.83;2.88;;;;;;;0.72;62.04;101239.44;4987874;28;20085;-41
2022/04/03 00:03:51;;;;;;;5.72;1.52;;;;;;;0.72;62.73;101246.19;4987665;28;20477;-45
2022/04/03 00:06:18;;;;;;;3.53;2.88;;;;;;;0.71;62.47;101247.00;4990882;28;20042;-44
2022/04/03 00:08:45;;;;;;;5.15;3.00;;;;;;;0.67;62.07;101251.03;4984777;28;20050;-45
2022/04/03 00:11:12;;;;;;;3.20;2.55;;;;;;;0.67;62.47;101248.47;4979606;28;20494;-41
2022/04/03 00:13:39;;;;;;;3.45;1.50;;;;;;;0.65;62.81;101244.97;4980590;28;20575;-42
2022/04/03 00:16:06;;;;;;;2.88;2.47;;;;;;;0.63;62.79;101244.00;4984071;28;20050;-42
2022/04/03 00:18:33;;;;;;;2.65;1.45;;;;;;;0.59;62.16;101240.41;4982884;28;20570;-41
2022/04/03 00:21:00;;;;;;;3.67;2.45;;;;;;;0.58;62.75;101250.50;4981530;28;20116;-43
2022/04/03 00:23:27;;;;;;;4.22;2.63;;;;;;;0.56;62.37;101246.97;4984737;28;20049;-43
2022/04/03 00:25:54;;;;;;;4.35;3.42;;;;;;;0.51;62.51;101239.94;4983003;28;20085;-41
2022/04/03 00:28:22;;;;;;;3.35;2.30;;;;;;;0.53;63.00;101251.94;4985534;28;20073;-45
2022/04/03 00:30:49;;;;;;;8.52;2.80;;;;;;;0.49;62.92;101251.75;4987414;28;20054;-43
2022/04/03 00:33:15;;;;;;;4.85;2.63;;;;;;;0.47;63.03;101247.34;4986663;28;20047;-43
2022/04/03 00:35:42;;;;;;;8.35;2.75;;;;;;;0.44;63.27;101253.13;4979440;28;20050;-47
2022/04/03 00:38:09;;;;;;;4.22;2.45;;;;;;;0.42;62.91;101253.84;4985273;28;20054;-45
2022/04/03 00:40:36;;;;;;;4.40;2.67;;;;;;;0.39;62.97;101254.53;4980187;28;20538;-43
2022/04/03 00:43:03;;;;;;;3.17;2.25;;;;;;;0.36;63.39;101251.81;4985672;28;20065;-41
2022/04/03 00:45:30;;;;;;;3.42;2.78;;;;;;;0.33;63.66;101255.06;4988481;28;20053;-45
2022/04/03 00:47:59;;;;;;;6.40;3.10;;;;;;;0.31;62.85;101253.22;4985065;28;20045;-45
2022/04/03 00:50:26;;;;;;;4.78;2.80;;;;;;;0.29;63.50;101254.78;4982624;28;20142;-41
2022/04/03 00:52:53;;;;;;;3.95;2.33;;;;;;;0.28;62.90;101250.47;4985572;28;20053;-43
2022/04/03 00:55:20;;;;;;;4.43;2.80;;;;;;;0.25;63.05;101244.44;4986121;28;20402;-43
2022/04/03 00:57:47;;;;;;;4.93;2.65;;;;;;;0.24;63.07;101250.31;4984418;28;20049;-42
2022/04/03 01:00:15;;;;;;;4.30;2.65;;;;;;;0.24;63.85;101255.41;4985089;28;20418;-46
2022/04/03 01:02:42;;;;;;;2.88;1.42;;;;;;;0.24;63.69;101250.31;4982640;28;20544;-43
2022/04/03 01:05:10;;;;;;;4.20;2.95;;;;;;;0.23;63.15;101243.44;4984781;28;20077;-42
2022/04/03 01:07:55;;;;;;;4.30;2.22;;;;;;;0.20;63.10;101255.16;4985591;28;20396;-42
2022/04/03 01:10:22;;;;;;;5.47;3.40;;;;;;;0.18;63.83;101249.06;4981799;28;20072;-42
2022/04/03 01:12:49;;;;;;;8.48;4.05;;;;;;;0.16;63.82;101248.13;4986488;28;20485;-44
2022/04/03 01:15:19;;;;;;;9.02;5.13;;;;;;;0.15;64.11;101254.88;4980002;28;20121;-42
2022/04/03 01:17:46;;;;;;;10.05;4.72;;;;;;;0.13;64.29;101251.34;4985944;28;20050;-42
2022/04/03 01:20:14;;;;;;;10.18;4.85;;;;;;;0.12;64.17;101254.69;4981084;28;20058;-43
2022/04/03 01:22:41;;;;;;;10.10;5.32;;;;;;;0.10;64.46;101262.22;4979515;28;20129;-45
2022/04/03 01:25:10;;;;;;;8.10;4.82;;;;;;;0.07;65.07;101251.00;4986637;28;20042;-43
2022/04/03 01:27:38;;;;;;;12.20;5.65;;;;;;;0.06;64.65;101249.19;4986775;28;20077;-45
2022/04/03 01:30:06;;;;;;;8.63;4.72;;;;;;;0.04;64.51;101240.59;4981655;28;20469;-47
2022/04/03 01:32:34;;;;;;;8.32;5.50;;;;;;;0.02;64.86;101248.16;4986825;28;20049;-43
2022/04/03 01:35:01;;;;;;;11.02;6.07;;;;;;;0.02;64.96;101247.25;4982893;28;20053;-43
2022/04/03 01:37:28;;;;;;;10.60;5.68;;;;;;;-0.01;65.23;101248.84;4983664;28;20233;-41
2022/04/03 01:39:55;;;;;;;12.07;5.85;;;;;;;-0.04;65.96;101248.66;4980834;28;20453;-46
2022/04/03 01:42:21;;;;;;;12.25;6.07;;;;;;;-0.05;65.42;101241.81;4982332;28;20050;-42
2022/04/03 01:44:48;;;;;;;11.35;5.95;;;;;;;-0.06;66.16;101242.63;4985611;28;20055;-43
2022/04/03 01:47:15;;;;;;;13.52;5.68;;;;;;;-0.06;66.08;101242.63;4983462;28;20042;-42
2022/04/03 01:49:42;;;;;;;8.27;5.18;;;;;;;-0.06;65.42;101236.63;4979620;28;20050;-45
2022/04/03 01:52:09;;;;;;;10.55;6.00;;;;;;;-0.08;65.21;101235.66;4985201;28;20486;-43
2022/04/03 01:54:35;;;;;;;13.82;7.00;;;;;;;-0.09;65.88;101237.34;4983295;28;20046;-44
2022/04/03 01:57:02;;;;;;;10.52;3.80;;;;;;;-0.09;66.08;101223.72;4984800;28;20454;-45
2022/04/03 01:59:29;;;;;;;11.73;5.78;;;;;;;-0.11;65.83;101221.06;4981075;28;20093;-44
2022/04/03 02:01:55;;;;;;;11.20;6.05;;;;;;;-0.11;65.40;101231.25;4978120;28;20057;-42
2022/04/03 02:04:23;;;;;;;12.48;5.75;;;;;;;-0.14;65.81;101226.84;4981492;28;20050;-46
2022/04/03 02:06:51;;;;;;;15.52;5.20;;;;;;;-0.16;65.84;101219.91;4981236;28;20548;-46
2022/04/03 02:09:18;;;;;;;12.43;6.22;;;;;;;-0.18;66.14;101219.81;4982907;28;20483;-41
2022/04/03 02:11:45;;;;;;;11.40;6.40;;;;;;;-0.18;66.07;101218.94;4985039;28;20046;-47
2022/04/03 02:14:12;;;;;;;14.48;7.25;;;;;;;-0.20;65.59;101223.94;4979871;28;20495;-46
2022/04/03 02:16:38;;;;;;;13.50;7.43;;;;;;;-0.21;65.57;101218.78;4979263;28;20116;-48
2022/04/03 02:19:05;;;;;;;10.73;7.15;;;;;;;-0.21;65.95;101228.97;4982124;28;20055;-44
2022/04/03 02:21:32;;;;;;;13.57;6.13;;;;;;;-0.22;66.03;101217.00;4984659;28;20104;-46
2022/04/03 02:23:58;;;;;;;11.93;6.05;;;;;;;-0.24;65.94;101224.53;4981965;28;20101;-43
2022/04/03 02:26:25;;;;;;;13.63;6.38;;;;;;;-0.26;65.81;101221.03;4981480;28;20053;-44
2022/04/03 02:28:52;;;;;;;11.15;5.80;;;;;;;-0.27;65.78;101215.06;4981695;28;20074;-42
2022/04/03 02:31:19;;;;;;;11.32;6.20;;;;;;;-0.28;66.06;101222.59;4982410;28;20051;-42
2022/04/03 02:33:46;;;;;;;11.25;6.30;;;;;;;-0.31;65.51;101218.19;4985757;28;20144;-45
2022/04/03 02:36:12;;;;;;;11.40;6.75;;;;;;;-0.32;66.25;101224.09;4985590;28;20049;-43
2022/04/03 02:38:39;;;;;;;13.13;6.25;;;;;;;-0.32;66.18;101213.00;4982907;28;20050;-44
2022/04/03 02:41:06;;;;;;;11.75;5.88;;;;;;;-0.34;65.64;101228.19;4984562;28;20069;-44
2022/04/03 02:43:32;;;;;;;9.40;5.53;;;;;;;-0.36;65.52;101219.59;4982322;28;20109;-43
2022/04/03 02:45:59;;;;;;;9.85;5.90;;;;;;;-0.36;66.08;101218.72;4984423;28;20128;-41
2022/04/03 02:48:25;;;;;;;11.60;6.05;;;;;;;-0.39;66.06;101219.41;4983040;28;20050;-43
2022/04/03 02:50:52;;;;;;;10.57;5.80;;;;;;;-0.40;65.98;101210.88;4984552;28;20062;-42
2022/04/03 02:53:19;;;;;;;10.25;4.88;;;;;;;-0.41;66.30;101219.31;4985318;28;20043;-42
2022/04/03 02:55:45;;;;;;;13.02;6.22;;;;;;;-0.41;66.17;101218.41;4986070;28;20055;-42
2022/04/03 02:58:12;;;;;;;9.90;5.50;;;;;;;-0.42;65.95;101221.75;4986503;28;20718;-44
2022/04/03 03:00:39;;;;;;;9.70;5.18;;;;;;;-0.42;66.26;101214.13;4985620;28;20050;-44
2022/04/03 03:03:07;;;;;;;10.70;6.15;;;;;;;-0.45;66.88;101229.19;4983336;28;20069;-43
2022/04/03 03:05:34;;;;;;;9.15;5.32;;;;;;;-0.46;67.54;101219.81;4986055;28;20145;-41
2022/04/03 03:08:01;;;;;;;11.23;5.28;;;;;;;-0.48;67.78;101223.94;4986116;28;20042;-43
2022/04/03 03:10:27;;;;;;;11.00;6.50;;;;;;;-0.47;67.21;101220.59;4988878;28;20163;-44
2022/04/03 03:12:54;;;;;;;9.55;5.80;;;;;;;-0.49;67.04;101214.53;4985102;28;20051;-43
2022/04/03 03:15:39;;;;;;;10.73;5.55;;;;;;;-0.48;66.58;101226.50;4986048;28;20839;-44
2022/04/03 03:18:05;;;;;;;10.32;5.88;;;;;;;-0.50;67.17;101226.41;4986186;28;20046;-44
2022/04/03 03:20:32;;;;;;;15.00;7.28;;;;;;;-0.50;67.02;101222.97;4987096;28;20042;-42
2022/04/03 03:23:00;;;;;;;12.93;5.55;;;;;;;-0.49;66.95;101232.34;4988965;28;20043;-43
2022/04/03 03:25:29;;;;;;;12.60;6.15;;;;;;;-0.50;66.52;101230.59;4988292;28;20438;-41
2022/04/03 03:27:56;;;;;;;11.80;7.03;;;;;;;-0.52;66.54;101223.75;4988182;28;20054;-44
2022/04/03 03:30:23;;;;;;;11.52;6.30;;;;;;;-0.53;66.95;101232.16;4988103;28;20058;-41
2022/04/03 03:32:49;;;;;;;18.08;6.60;;;;;;;-0.55;67.22;101217.56;4985729;28;20066;-44
2022/04/03 03:35:16;;;;;;;11.70;5.93;;;;;;;-0.56;66.68;101221.81;4984340;28;20101;-45
2022/04/03 03:37:44;;;;;;;13.00;6.43;;;;;;;-0.58;66.85;101223.38;4989670;28;20050;-43
2022/04/03 03:40:11;;;;;;;10.38;6.70;;;;;;;-0.57;66.59;101214.94;4985481;28;20050;-46
2022/04/03 03:42:40;;;;;;;15.50;7.22;;;;;;;-0.59;66.92;101218.19;4984684;28;20046;-45
2022/04/03 03:45:08;;;;;;;13.07;8.30;;;;;;;-0.60;67.23;101212.22;4977623;28;20529;-46
2022/04/03 03:47:35;;;;;;;11.45;7.78;;;;;;;-0.62;67.04;101211.25;4982871;28;20042;-47
2022/04/03 03:50:02;;;;;;;12.93;7.20;;;;;;;-0.63;67.14;101208.59;4983871;28;20046;-44
2022/04/03 03:52:29;;;;;;;13.25;6.97;;;;;;;-0.65;67.14;101204.31;4982974;28;20081;-42
2022/04/03 03:54:56;;;;;;;11.73;6.15;;;;;;;-0.67;67.16;101208.41;4989483;28;20548;-42
2022/04/03 03:57:24;;;;;;;12.95;7.25;;;;;;;-0.67;66.97;101203.31;4987404;28;20054;-44
2022/04/03 04:00:09;;;;;;;10.77;7.07;;;;;;;-0.69;67.45;101209.09;4985703;28;20057;-45
2022/04/03 04:02:37;;;;;;;12.95;5.35;;;;;;;-0.70;67.05;101204.81;4985479;28;20050;-43
2022/04/03 04:05:04;;;;;;;12.98;7.53;;;;;;;-0.72;67.03;101203.81;4984860;28;20050;-42
2022/04/03 04:07:41;;;;;;;15.07;7.97;;;;;;;-0.74;67.06;101200.31;4985010;28;20058;-41
2022/04/03 04:10:09;;;;;;;13.95;8.35;;;;;;;-0.75;67.37;101199.41;5001245;28;20054;-45
2022/04/03 04:12:36;;;;;;;15.00;7.32;;;;;;;-0.75;67.49;101198.56;4984086;28;20089;-44
2022/04/03 04:15:03;;;;;;;13.85;8.32;;;;;;;-0.78;66.88;101200.13;4985173;28;20072;-44
2022/04/03 04:17:36;;;;;;;15.13;6.65;;;;;;;-0.80;67.25;101196.59;4983455;28;20054;-42
2022/04/03 04:20:05;;;;;;;14.98;8.63;;;;;;;-0.83;67.45;101201.50;4979818;28;20497;-41
2022/04/03 04:22:33;;;;;;;13.50;8.35;;;;;;;-0.85;67.65;101202.19;4985210;28;20042;-41
2022/04/03 04:25:00;;;;;;;14.35;7.72;;;;;;;-0.88;67.40;101205.41;4982587;28;20038;-45
2022/04/03 04:27:26;;;;;;;15.60;8.52;;;;;;;-0.90;67.97;101199.34;4982521;28;20051;-44
2022/04/03 04:29:53;;;;;;;15.27;7.65;;;;;;;-0.89;67.40;101200.22;4987235;28;20101;-47
2022/04/03 04:32:21;;;;;;;15.88;8.00;;;;;;;-0.90;68.04;101199.34;4984980;28;20545;-41
2022/04/03 04:34:49;;;;;;;14.70;8.95;;;;;;;-0.93;67.61;101199.16;4984256;28;20054;-44
2022/04/03 04:37:16;;;;;;;11.52;8.02;;;;;;;-0.93;67.64;101205.13;4985793;28;20075;-42
2022/04/03 04:39:43;;;;;;;14.68;9.15;;;;;;;-0.94;67.97;101200.81;4986672;28;20049;-47
2022/04/03 04:42:10;;;;;;;12.80;7.60;;;;;;;-0.94;68.15;101202.50;4983303;28;20104;-45
2022/04/03 04:44:37;;;;;;;14.38;7.78;;;;;;;-0.96;68.07;101199.84;4981694;28;20059;-44
2022/04/03 04:47:04;;;;;;;15.07;7.80;;;;;;;-0.96;67.67;101204.94;4985268;28;20549;-43
2022/04/03 04:49:31;;;;;;;14.07;8.00;;;;;;;-0.97;67.66;101208.28;4983166;28;20054;-45
2022/04/03 04:51:58;;;;;;;14.07;7.47;;;;;;;-0.98;67.45;101210.72;4981850;28;20054;-44
2022/04/03 04:54:26;;;;;;;12.50;6.90;;;;;;;-1.00;67.40;101207.19;4986008;28;20046;-44
2022/04/03 04:56:53;;;;;;;12.82;7.65;;;;;;;-1.00;67.81;101207.19;4985667;28;20120;-45
2022/04/03 04:59:20;;;;;;;15.70;5.78;;;;;;;-1.03;67.34;101207.88;4981819;28;20434;-50
2022/04/03 05:01:47;;;;;;;10.40;6.05;;;;;;;-1.02;68.11;101206.22;4983523;28;20112;-45
2022/04/03 05:04:13;;;;;;;13.40;6.63;;;;;;;-1.05;67.97;101210.31;4983642;28;20042;-44
2022/04/03 05:06:40;;;;;;;12.60;6.03;;;;;;;-1.05;67.63;101210.31;4983813;28;20050;-42
2022/04/03 05:09:07;;;;;;;12.38;6.35;;;;;;;-1.07;68.27;101211.91;4980622;28;20039;-43
2022/04/03 05:11:34;;;;;;;13.43;6.72;;;;;;;-1.08;68.26;101207.56;4985119;28;20045;-45
2022/04/03 05:14:01;;;;;;;9.80;5.28;;;;;;;-1.09;67.75;101208.38;4981264;28;20054;-44
2022/04/03 05:16:27;;;;;;;9.60;5.85;;;;;;;-1.11;67.83;101204.84;4985737;28;20050;-47
2022/04/03 05:18:54;;;;;;;9.73;6.07;;;;;;;-1.11;68.13;101209.94;4983062;28;20061;-43
2022/04/03 05:21:22;;;;;;;12.63;5.22;;;;;;;-1.12;67.66;101210.72;4981251;28;20050;-44
2022/04/03 05:23:49;;;;;;;9.98;5.43;;;;;;;-1.13;67.83;101206.41;4984014;28;20051;-45
2022/04/03 05:26:17;;;;;;;12.98;6.53;;;;;;;-1.11;68.00;101204.84;4984094;28;20096;-43
2022/04/03 05:28:44;;;;;;;11.55;6.20;;;;;;;-1.11;68.26;101204.84;4985730;28;20054;-42
2022/04/03 05:31:11;;;;;;;9.27;5.13;;;;;;;-1.12;68.27;101200.53;4986673;28;20069;-47
2022/04/03 05:33:37;;;;;;;9.98;5.32;;;;;;;-1.11;68.36;101209.94;4985151;28;20137;-42
2022/04/03 05:36:04;;;;;;;9.73;5.35;;;;;;;-1.12;68.13;101208.16;4983684;28;20077;-46
2022/04/03 05:38:32;;;;;;;9.55;6.00;;;;;;;-1.12;68.51;101202.22;4978032;28;20059;-42
2022/04/03 05:40:58;;;;;;;8.27;3.92;;;;;;;-1.11;68.00;101209.94;4980923;28;20439;-44
2022/04/03 05:43:25;;;;;;;9.23;3.65;;;;;;;-1.11;68.14;101215.03;4980732;28;20434;-46
2022/04/03 05:45:51;;;;;;;12.02;6.72;;;;;;;-1.09;68.10;101212.56;4983385;28;20046;-43
2022/04/03 05:48:18;;;;;;;9.02;5.22;;;;;;;-1.10;68.06;101209.16;4985060;28;20047;-44
2022/04/03 05:50:45;;;;;;;11.40;6.18;;;;;;;-1.10;67.69;101216.78;4985495;28;20133;-47
2022/04/03 05:53:12;;;;;;;9.20;6.35;;;;;;;-1.11;67.70;101214.13;4983903;28;20494;-41
2022/04/03 05:55:39;;;;;;;9.80;6.00;;;;;;;-1.12;67.69;101212.38;4983261;28;20049;-43
2022/04/03 05:58:05;;;;;;;11.00;5.18;;;;;;;-1.12;68.29;101218.34;4979801;28;20519;-43
2022/04/03 06:00:32;;;;;;;10.75;5.85;;;;;;;-1.12;68.03;101223.41;4980045;28;20073;-41
2022/04/03 06:03:16;;;;;;;13.93;6.30;;;;;;;-1.11;68.14;101220.13;4980788;28;20057;-44
2022/04/03 06:05:43;;;;;;;12.15;6.18;;;;;;;-1.13;68.23;101216.56;4985816;28;20046;-43
2022/04/03 06:08:09;;;;;;;9.50;6.05;;;;;;;-1.10;68.70;101224.41;4980724;28;20502;-45
2022/04/03 06:10:36;;;;;;;11.75;6.25;;;;;;;-1.09;68.41;101218.53;4978771;28;20122;-45
2022/04/03 06:13:05;;;;;;;12.27;6.68;;;;;;;-1.07;68.19;101214.44;4983888;28;20514;-47
2022/04/03 06:15:34;;;;;;;15.00;7.90;;;;;;;-1.05;68.21;101225.56;4981161;28;20042;-43
2022/04/03 06:18:02;;;;;;;12.65;6.47;;;;;;;-1.01;68.36;101221.59;4981663;28;20043;-43
2022/04/03 06:20:29;;;;;;;13.82;8.63;;;;;;;-1.00;68.44;101222.44;4978726;28;20042;-47
2022/04/03 06:22:55;;;;;;;12.07;7.43;;;;;;;-0.98;68.34;101223.44;4979244;28;20053;-43
2022/04/03 06:25:23;;;;;;;14.07;7.65;;;;;;;-0.96;68.63;101229.47;4985982;28;20077;-44
2022/04/03 06:27:51;;;;;;;17.00;9.40;;;;;;;-0.95;68.56;101224.50;4987554;28;20100;-41
2022/04/03 06:30:18;;;;;;;19.60;9.15;;;;;;;-0.92;68.80;101228.88;4980505;28;20043;-43
2022/04/03 06:32:45;;;;;;;40.33;18.05;;;;;;;-0.91;68.27;101234.06;4987338;28;20050;-46
2022/04/03 06:35:13;;;;;;;92.60;40.72;;;;;;;-0.86;68.30;101231.84;4990456;28;20050;-43
2022/04/03 06:37:41;;;;;;;46.88;25.33;;;;;;;-0.84;68.48;101225.16;4987359;28;20430;-44
2022/04/03 06:40:08;;;;;;;27.17;16.60;;;;;;;-0.79;68.58;101228.00;4989465;28;20057;-45
2022/04/03 06:42:35;;;;;;;25.15;16.13;;;;;;;-0.75;68.85;101231.63;4984755;28;20045;-46
2022/04/03 06:45:03;;;;;;;20.55;13.25;;;;;;;-0.71;68.53;101229.34;4988520;28;20050;-43
2022/04/03 06:47:31;;;;;;;20.67;8.77;;;;;;;-0.66;68.28;101234.75;4989988;28;20497;-43
2022/04/03 06:49:58;;;;;;;19.85;9.93;;;;;;;-0.59;68.28;101231.78;4989030;28;20093;-42
2022/04/03 06:52:24;;;;;;;19.40;9.93;;;;;;;-0.55;68.52;101233.75;4989461;28;20065;-46
2022/04/03 06:54:52;;;;;;;15.70;9.68;;;;;;;-0.49;68.20;101233.25;4987662;28;20097;-43
2022/04/03 06:57:19;;;;;;;17.10;10.68;;;;;;;-0.41;68.39;101236.25;4990656;28;20046;-45
2022/04/03 06:59:46;;;;;;;18.63;9.45;;;;;;;-0.35;68.48;101240.81;4985427;28;20042;-43
2022/04/03 07:02:13;;;;;;;17.90;7.63;;;;;;;-0.29;67.93;101236.13;4984610;28;20438;-44
2022/04/03 07:04:40;;;;;;;18.40;9.25;;;;;;;-0.22;68.35;101240.81;4987650;28;20054;-43
2022/04/03 07:07:07;;;;;;;19.10;8.95;;;;;;;-0.13;68.32;101245.59;4990412;28;20509;-45
2022/04/03 07:09:41;;;;;;;20.23;10.98;;;;;;;0.38;68.94;101242.59;4984688;28;20049;-43
2022/04/03 07:12:08;;;;;;;29.55;15.73;;;;;;;1.33;68.80;101241.88;4989751;28;20136;-46
2022/04/03 07:14:35;;;;;;;35.30;18.08;;;;;;;2.35;68.29;101242.84;4986200;28;20057;-47
2022/04/03 07:17:02;;;;;;;33.60;16.23;;;;;;;3.38;67.89;101245.19;4986159;28;20421;-45
2022/04/03 07:19:29;;;;;;;26.85;14.57;;;;;;;4.36;66.25;101240.03;4991952;28;20065;-50
2022/04/03 07:21:57;;;;;;;24.50;12.63;;;;;;;5.30;64.58;101233.44;4982276;28;20073;-45
2022/04/03 07:24:25;;;;;;;22.10;11.20;;;;;;;6.21;63.51;101239.31;4973941;28;20101;-43
2022/04/03 07:26:53;;;;;;;19.55;10.15;;;;;;;6.99;62.54;101234.94;4975559;28;20594;-48
2022/04/03 07:29:21;;;;;;;20.20;11.05;;;;;;;7.73;59.49;101235.38;4978354;28;20100;-44
2022/04/03 07:31:49;;;;;;;24.55;12.23;;;;;;;8.41;59.24;101233.72;4976843;28;20102;-48
2022/04/03 07:34:15;;;;;;;25.63;12.15;;;;;;;9.07;57.13;101236.19;4976469;28;20506;-45
2022/04/03 07:36:42;;;;;;;26.83;13.63;;;;;;;9.71;56.79;101241.81;4979868;28;20054;-50
2022/04/03 07:39:09;;;;;;;20.85;10.68;;;;;;;10.31;54.82;101238.63;4981691;28;20043;-49
2022/04/03 07:41:37;;;;;;;18.98;11.38;;;;;;;10.75;54.67;101238.53;4981668;28;20105;-49
2022/04/03 07:44:06;;;;;;;17.65;9.13;;;;;;;10.90;52.84;101239.59;4977648;28;20376;-51
2022/04/03 07:46:32;;;;;;;21.88;12.27;;;;;;;10.74;52.53;101236.78;4974546;28;20057;-50
2022/04/03 07:48:59;;;;;;;17.08;10.45;;;;;;;10.34;51.76;101236.09;4976301;28;20051;-46
2022/04/03 07:51:27;;;;;;;15.75;9.85;;;;;;;9.88;52.47;101234.41;4972888;28;20109;-48
2022/04/03 07:53:55;;;;;;;15.25;8.25;;;;;;;9.28;52.95;101236.66;4977191;28;20058;-46
2022/04/03 07:56:22;;;;;;;18.25;9.57;;;;;;;8.74;53.17;101243.19;4980673;28;20050;-46
2022/04/03 07:58:49;;;;;;;15.68;9.18;;;;;;;8.26;55.16;101231.66;4981333;28;20057;-48
2022/04/03 08:01:16;;;;;;;15.45;9.55;;;;;;;7.85;56.11;101240.03;4976587;28;20230;-53
2022/04/03 08:03:43;;;;;;;15.82;9.20;;;;;;;7.41;56.05;101235.34;4972767;28;20050;-48
2022/04/03 08:06:10;;;;;;;16.95;8.95;;;;;;;6.92;56.22;101236.47;4985255;28;20053;-46
2022/04/03 08:08:36;;;;;;;16.05;9.23;;;;;;;6.63;56.85;101235.53;4986416;28;20108;-46
2022/04/03 08:11:03;;;;;;;18.30;10.10;;;;;;;6.37;57.20;101239.00;4983367;28;20640;-49
2022/04/03 08:13:30;;;;;;;16.88;9.00;;;;;;;6.12;57.09;101242.44;4982419;28;20548;-50
2022/04/03 08:15:56;;;;;;;18.40;9.50;;;;;;;5.83;58.44;101242.22;4983587;28;20046;-45
2022/04/03 08:18:24;;;;;;;30.25;14.40;;;;;;;5.55;58.96;101239.53;4976377;28;20050;-47
2022/04/03 08:20:51;;;;;;;21.17;12.32;;;;;;;5.38;59.78;101234.63;4982067;28;21031;-48
2022/04/03 08:23:17;;;;;;;23.30;12.77;;;;;;;5.25;59.93;101232.41;4978579;28;20054;-45
2022/04/03 08:25:45;;;;;;;23.73;14.25;;;;;;;5.13;59.71;101231.13;4978201;28;20101;-46
2022/04/03 08:28:11;;;;;;;19.92;11.90;;;;;;;4.97;60.29;101232.19;4976869;28;20051;-43
2022/04/03 08:30:38;;;;;;;21.23;12.95;;;;;;;4.84;60.53;101237.69;4980755;28;20189;-45
2022/04/03 08:33:06;;;;;;;18.33;10.52;;;;;;;4.73;60.59;101234.69;4979097;28;20057;-45
2022/04/03 08:35:38;;;;;;;19.42;10.93;;;;;;;4.61;61.42;101233.38;4977666;28;20468;-47
2022/04/03 08:38:05;;;;;;;20.85;11.73;;;;;;;4.50;61.14;101226.94;4980717;28;20133;-47
2022/04/03 08:40:33;;;;;;;20.83;13.07;;;;;;;4.44;60.98;101234.34;4986951;28;20050;-42
2022/04/03 08:43:01;;;;;;;22.55;11.63;;;;;;;4.37;61.23;101241.81;4989095;28;20046;-43
2022/04/03 08:45:28;;;;;;;19.10;11.23;;;;;;;4.32;61.75;101235.59;4979396;28;20047;-43
2022/04/03 08:47:57;;;;;;;20.83;11.27;;;;;;;4.26;61.52;101237.91;4982233;28;20057;-48
2022/04/03 08:50:28;;;;;;;22.60;13.80;;;;;;;4.18;62.08;101223.88;4988267;28;20126;-45
2022/04/03 08:52:58;;;;;;;19.73;10.02;;;;;;;4.14;62.12;101227.13;4981597;28;20117;-47
2022/04/03 08:55:25;;;;;;;22.92;10.48;;;;;;;4.10;62.04;101229.56;4980113;28;20038;-43
2022/04/03 08:57:52;;;;;;;22.15;11.27;;;;;;;4.06;62.11;101235.34;4980114;28;20085;-44
2022/04/03 09:00:20;;;;;;;41.90;18.27;;;;;;;4.06;62.36;101234.50;4985548;28;20077;-44
2022/04/03 09:02:47;;;;;;;19.40;10.32;;;;;;;4.04;62.46;101234.41;4985884;28;20046;-45
2022/04/03 09:05:14;;;;;;;20.13;11.45;;;;;;;3.98;62.65;101231.59;4987919;28;20057;-44
2022/04/03 09:07:42;;;;;;;19.05;10.32;;;;;;;3.96;62.71;101235.78;4972768;28;20141;-44
2022/04/03 09:10:13;;;;;;;18.80;9.80;;;;;;;3.95;63.07;101241.72;4981421;28;20050;-45
2022/04/03 09:12:48;;;;;;;19.73;9.50;;;;;;;3.97;63.12;101240.09;4981554;28;20057;-47
2022/04/03 09:15:21;;;;;;;20.35;10.20;;;;;;;4.02;63.27;101238.59;4983479;28;20054;-47
2022/04/03 09:17:52;;;;;;;19.70;9.25;;;;;;;4.05;63.17;101243.84;4984021;28;20092;-48
2022/04/03 09:20:25;;;;;;;21.40;10.30;;;;;;;4.11;63.21;101244.13;4984065;28;20057;-47
2022/04/03 09:22:55;;;;;;;19.40;9.20;;;;;;;4.19;63.42;101236.75;4986120;28;20065;-47
2022/04/03 09:25:25;;;;;;;17.88;9.73;;;;;;;4.26;63.14;101237.91;4977448;28;20066;-46
2022/04/03 09:27:57;;;;;;;19.38;9.73;;;;;;;4.35;63.39;101230.59;4975246;28;20061;-44
2022/04/03 09:30:43;;;;;;;21.83;10.57;;;;;;;4.46;63.68;101232.75;4980805;28;20105;-50
2022/04/03 09:33:13;;;;;;;21.23;10.55;;;;;;;4.60;63.30;101238.44;4984627;28;20484;-44
2022/04/03 09:36:01;;;;;;;20.70;9.82;;;;;;;4.72;63.32;101235.47;4986520;28;20042;-48
2022/04/03 09:38:30;;;;;;;20.45;10.73;;;;;;;4.88;63.38;101239.56;4983861;28;20418;-43
2022/04/03 09:41:00;;;;;;;25.65;11.63;;;;;;;4.99;62.76;101235.72;4982901;28;20448;-50
2022/04/03 09:43:35;;;;;;;22.88;9.60;;;;;;;5.16;63.11;101226.94;4979948;28;20445;-47
2022/04/03 09:46:06;;;;;;;17.70;9.77;;;;;;;5.31;63.42;101224.06;4980830;28;20442;-46
2022/04/03 09:51:49;;;;;;;14.63;6.53;;;;;;;5.65;63.39;101221.03;5155373;27;20770;-45
2022/04/03 09:54:19;;;;;;;18.83;7.18;;;;;;;5.84;62.65;101219.13;5116297;28;20505;-46
2022/04/03 09:56:47;;;;;;;15.68;6.35;;;;;;;6.02;61.71;101220.63;5117103;28;20044;-47
2022/04/03 09:59:15;;;;;;;13.05;6.13;;;;;;;6.16;62.14;101222.00;5113568;28;20078;-45
2022/04/03 10:01:42;;;;;;;13.18;5.60;;;;;;;6.34;61.62;101220.88;5100393;28;20098;-46
2022/04/03 10:04:13;;;;;;;13.95;6.53;;;;;;;6.45;62.03;101221.22;5113798;28;20048;-43
2022/04/03 10:06:41;;;;;;;15.98;7.05;;;;;;;6.56;61.04;101216.44;5104582;28;20092;-44
2022/04/03 10:09:11;;;;;;;19.38;7.93;;;;;;;6.75;60.86;101217.03;5116168;28;20088;-46
2022/04/03 10:11:39;;;;;;;;;;;;;;;6.84;60.54;101219.91;5117437;28;20052;-44
2022/04/03 10:14:06;;;;;;;23.73;8.95;;;;;;;7.06;60.56;101210.28;5114620;28;19928;-43
2022/04/03 10:16:33;;;;;;;13.60;6.68;;;;;;;7.31;60.13;101211.00;5122984;28;20406;-44
2022/04/03 10:19:00;;;;;;;16.17;6.85;;;;;;;7.44;60.58;101207.09;5122540;28;20100;-48
2022/04/03 10:21:44;;;;;;;10.77;4.55;;;;;;;7.56;59.99;101201.38;5122461;28;20043;-44
2022/04/03 10:24:15;;;;;;;15.40;6.60;;;;;;;7.78;59.97;101202.00;5123323;28;20092;-43
2022/04/03 10:26:46;;;;;;;14.13;6.57;;;;;;;8.01;59.88;101196.59;5121401;28;20039;-45
2022/04/03 10:29:14;;;;;;;12.43;6.03;;;;;;;8.12;58.04;101187.41;5121162;28;20589;-43
2022/04/03 10:31:54;;;;;;;13.98;6.28;;;;;;;8.23;56.88;101188.56;5100963;28;20044;-46
2022/04/03 10:34:22;;;;;;;14.88;5.55;;;;;;;8.36;56.76;101189.75;5099981;28;20592;-45
2022/04/03 10:36:51;;;;;;;11.13;5.82;;;;;;;8.53;57.12;101183.22;5077241;28;20139;-46
2022/04/03 10:39:25;;;;;;;12.15;5.10;;;;;;;8.72;57.69;101177.69;5100670;28;20039;-45
2022/04/03 10:42:13;;;;;;;9.93;4.43;;;;;;;8.79;55.71;101173.56;5097717;28;20048;-44
2022/04/03 10:47:19;;;;;;;11.57;4.70;;;;;;;8.84;54.63;101169.38;5036310;28;20420;-45
2022/04/03 10:50:00;;;;;;;11.45;5.00;;;;;;;8.85;55.38;101170.25;5003841;28;20042;-44
2022/04/03 10:58:03;;;;;;;8.70;4.90;;;;;;;9.05;55.71;101164.66;5011813;28;20753;-45
2022/04/03 11:00:36;;;;;;;8.80;4.00;;;;;;;9.09;54.75;101158.69;4999264;28;20061;-46
2022/04/03 11:09:03;;;;;;;10.98;5.40;;;;;;;8.99;53.58;101157.63;5037073;28;20396;-48
2022/04/03 11:14:10;;;;;;;12.52;4.60;;;;;;;8.97;54.11;101155.00;5050549;28;20420;-45
2022/04/03 11:16:56;;;;;;;5.05;2.38;;;;;;;8.85;53.70;101152.16;5021516;28;20053;-49
2022/04/03 11:19:45;;;;;;;9.05;4.00;;;;;;;9.07;54.32;101143.16;5019179;28;20079;-43
2022/04/03 11:22:16;;;;;;;8.07;3.28;;;;;;;9.12;52.84;101151.03;5030777;28;20041;-43
2022/04/03 11:24:44;;;;;;;10.73;5.45;;;;;;;9.25;54.08;101144.38;5032418;28;20103;-46
2022/04/03 11:27:13;;;;;;;8.10;4.18;;;;;;;9.30;53.68;101140.19;5024634;28;20053;-46
2022/04/03 11:29:40;;;;;;;7.82;4.18;;;;;;;9.39;53.48;101147.22;5025358;28;20045;-46
2022/04/03 11:32:08;;;;;;;9.80;4.53;;;;;;;9.61;53.89;101138.19;5029096;28;20044;-43
2022/04/03 11:34:35;;;;;;;11.60;3.55;;;;;;;9.66;52.84;101138.25;5030525;28;20049;-49
2022/04/03 11:37:05;;;;;;;12.55;4.20;;;;;;;9.70;51.88;101129.72;5029793;28;20378;-45
2022/04/03 11:39:34;;;;;;;10.20;5.05;;;;;;;9.76;52.24;101124.66;5027810;28;20609;-45
2022/04/03 11:42:04;;;;;;;7.97;4.45;;;;;;;9.89;52.29;101124.88;5018339;28;20049;-46
2022/04/03 11:44:30;;;;;;;11.82;4.72;;;;;;;10.00;52.37;101131.09;5022828;28;20540;-47
2022/04/03 11:46:57;;;;;;;11.07;4.88;;;;;;;10.11;52.28;101127.81;5018891;28;20044;-49